Time;durP1;ratioP1;P1;durP2;ratioP2;P2;SDS_P1;SDS_P2;PMS_P1;PMS_P2;Temp;Humidity;BMP_temperature;BMP_pressure;BME280_temperature;BME280_humidity;BME280_pressure;Samples;Min_cycle;Max_cycle;Signal;HPM_P1;HPM_P2
2024/01/19 00:00:33;;;;;;;25.00;7.28;;;13.40;99.90;;;;;;4830293;29;20034;-79
2024/01/19 00:02:59;;;;;;;31.90;8.40;;;13.30;99.90;;;;;;4861439;29;20048;-77
2024/01/19 00:05:26;;;;;;;32.70;7.63;;;13.30;99.90;;;;;;4861519;29;20041;-78
2024/01/19 00:07:52;;;;;;;29.45;7.40;;;13.30;99.90;;;;;;4860635;29;20032;-77
2024/01/19 00:10:19;;;;;;;33.95;7.07;;;13.20;99.90;;;;;;4860093;29;20060;-77
2024/01/19 00:12:45;;;;;;;33.33;7.45;;;13.20;99.90;;;;;;4860465;29;20026;-78
2024/01/19 00:15:12;;;;;;;27.13;6.43;;;13.20;99.90;;;;;;4861485;29;20033;-81
2024/01/19 00:17:39;;;;;;;27.45;6.30;;;13.10;99.90;;;;;;4829729;29;20033;-79
2024/01/19 00:20:09;;;;;;;23.30;6.18;;;13.00;99.90;;;;;;4861762;29;20056;-79
2024/01/19 00:22:36;;;;;;;20.15;6.88;;;12.90;99.90;;;;;;4845431;29;20060;-79
2024/01/19 00:25:03;;;;;;;26.40;6.82;;;12.80;99.90;;;;;;4862426;29;20052;-77
2024/01/19 00:27:29;;;;;;;21.15;6.18;;;12.70;99.90;;;;;;4860915;29;20030;-77
2024/01/19 00:29:56;;;;;;;20.50;5.78;;;12.60;99.90;;;;;;4860592;29;20129;-76
2024/01/19 00:32:23;;;;;;;35.22;7.25;;;12.50;99.90;;;;;;4845126;29;20049;-77
2024/01/19 00:34:50;;;;;;;28.77;6.57;;;12.40;99.90;;;;;;4861416;29;20421;-79
2024/01/19 00:37:16;;;;;;;22.30;5.57;;;12.40;99.90;;;;;;4845140;29;20041;-79
2024/01/19 00:39:43;;;;;;;22.50;5.75;;;12.30;99.90;;;;;;4844939;29;20033;-78
2024/01/19 00:42:10;;;;;;;21.05;6.03;;;12.20;99.90;;;;;;4861805;29;20029;-78
2024/01/19 00:44:37;;;;;;;33.50;8.20;;;12.20;99.90;;;;;;4860821;29;20104;-78
2024/01/19 00:47:06;;;;;;;32.70;7.22;;;12.10;99.90;;;;;;4860372;29;20049;-78
2024/01/19 00:49:33;;;;;;;33.33;6.20;;;12.10;99.90;;;;;;4860223;29;20436;-79
2024/01/19 00:51:59;;;;;;;27.63;5.57;;;12.20;99.90;;;;;;4860270;29;20514;-80
2024/01/19 00:54:26;;;;;;;30.58;5.82;;;12.10;99.90;;;;;;4861325;29;20117;-77
2024/01/19 00:56:52;;;;;;;36.60;6.20;;;12.10;99.90;;;;;;4844660;29;20436;-78
2024/01/19 00:59:19;;;;;;;27.35;5.57;;;12.10;99.90;;;;;;4861185;29;20506;-76
2024/01/19 01:01:46;;;;;;;33.85;6.13;;;12.10;99.90;;;;;;4861613;29;20049;-77
2024/01/19 01:04:14;;;;;;;29.50;7.43;;;12.20;99.90;;;;;;4860019;29;20033;-79
2024/01/19 01:06:41;;;;;;;28.00;5.65;;;12.20;99.90;;;;;;4861225;29;20628;-78
2024/01/19 01:09:08;;;;;;;33.00;5.63;;;12.20;99.90;;;;;;4860328;29;20494;-78
2024/01/19 01:11:34;;;;;;;21.52;5.05;;;12.20;99.90;;;;;;4827617;29;20493;-77
2024/01/19 01:14:01;;;;;;;25.95;6.07;;;12.20;99.90;;;;;;4859157;29;20036;-78
2024/01/19 01:16:29;;;;;;;29.92;5.68;;;12.20;99.90;;;;;;4859729;29;20037;-78
2024/01/19 01:18:57;;;;;;;20.88;5.18;;;12.20;99.90;;;;;;4844503;29;20082;-79
2024/01/19 01:21:25;;;;;;;21.08;5.70;;;12.30;99.90;;;;;;4844895;29;20033;-77
2024/01/19 01:23:55;;;;;;;30.67;5.63;;;12.30;99.90;;;;;;4830087;29;20104;-78
2024/01/19 01:26:21;;;;;;;26.33;5.25;;;12.30;99.90;;;;;;4872814;29;20057;-78
2024/01/19 01:28:48;;;;;;;30.70;5.20;;;12.40;99.90;;;;;;4861310;29;20021;-79
2024/01/19 01:31:15;;;;;;;31.25;5.65;;;12.40;99.90;;;;;;4844609;29;20036;-78
2024/01/19 01:33:42;;;;;;;23.25;5.50;;;12.50;99.90;;;;;;4859775;29;20026;-78
2024/01/19 01:36:09;;;;;;;29.73;5.85;;;12.40;99.90;;;;;;4848130;29;20480;-81
2024/01/19 01:38:36;;;;;;;33.65;5.70;;;12.50;99.90;;;;;;4844529;29;20052;-78
2024/01/19 01:41:05;;;;;;;24.70;5.22;;;12.50;99.90;;;;;;4844317;29;20033;-77
2024/01/19 01:43:32;;;;;;;30.27;5.43;;;12.50;99.90;;;;;;4844629;29;20033;-78
2024/01/19 01:45:58;;;;;;;21.38;4.95;;;12.50;99.90;;;;;;4854523;29;20030;-76
2024/01/19 01:48:30;;;;;;;25.35;5.75;;;12.50;99.90;;;;;;4860453;29;20369;-77
2024/01/19 01:50:57;;;;;;;29.60;7.03;;;12.50;99.90;;;;;;4861093;29;20036;-79
2024/01/19 01:53:24;;;;;;;21.05;4.65;;;12.50;99.90;;;;;;4845156;29;20041;-77
2024/01/19 01:55:52;;;;;;;19.83;5.05;;;12.50;99.90;;;;;;4868633;29;20045;-77
2024/01/19 01:58:19;;;;;;;30.73;5.65;;;12.50;99.90;;;;;;4862989;29;20093;-78
2024/01/19 02:00:46;;;;;;;20.48;5.13;;;12.60;99.90;;;;;;4847863;29;20037;-78
2024/01/19 02:03:13;;;;;;;19.95;4.72;;;12.60;99.90;;;;;;4864292;29;20109;-79
2024/01/19 02:05:42;;;;;;;17.13;4.90;;;12.70;99.90;;;;;;4864177;29;20391;-77
2024/01/19 02:08:09;;;;;;;29.70;5.72;;;12.70;99.90;;;;;;4862862;29;20053;-78
2024/01/19 02:10:36;;;;;;;24.23;6.00;;;12.80;99.90;;;;;;4864229;29;20412;-78
2024/01/19 02:13:03;;;;;;;26.65;5.03;;;12.80;99.90;;;;;;4832448;29;20101;-77
2024/01/19 02:15:30;;;;;;;28.25;5.10;;;12.80;99.90;;;;;;4853641;29;20077;-78
2024/01/19 02:17:58;;;;;;;24.10;6.10;;;12.80;99.90;;;;;;4864200;29;20033;-77
2024/01/19 02:20:26;;;;;;;27.48;5.65;;;12.80;99.90;;;;;;4862662;29;20067;-78
2024/01/19 02:22:55;;;;;;;24.58;5.53;;;12.80;99.90;;;;;;4848150;29;20462;-78
2024/01/19 02:25:23;;;;;;;29.00;6.35;;;12.80;99.90;;;;;;4858076;29;20466;-77
2024/01/19 02:27:50;;;;;;;25.20;5.70;;;12.80;99.90;;;;;;4832427;29;20034;-78
2024/01/19 02:30:16;;;;;;;30.40;6.68;;;12.80;99.90;;;;;;4862612;29;20612;-78
2024/01/19 02:32:43;;;;;;;20.58;5.32;;;12.80;99.90;;;;;;4863212;29;20100;-79
2024/01/19 02:35:11;;;;;;;25.02;5.90;;;12.80;99.90;;;;;;4848485;29;20038;-79
2024/01/19 02:37:37;;;;;;;25.83;6.45;;;12.70;99.90;;;;;;4831789;29;20044;-78
2024/01/19 02:40:05;;;;;;;24.33;5.68;;;12.70;99.90;;;;;;4862477;29;20030;-78
2024/01/19 02:42:32;;;;;;;20.70;5.88;;;12.70;99.90;;;;;;4847558;29;20077;-78
2024/01/19 02:44:59;;;;;;;29.20;5.25;;;12.60;99.90;;;;;;4862778;29;20054;-77
2024/01/19 02:47:28;;;;;;;24.33;5.95;;;12.50;99.90;;;;;;4861572;29;20120;-78
2024/01/19 02:49:55;;;;;;;32.55;5.70;;;12.50;99.90;;;;;;4847209;29;20057;-78
2024/01/19 02:52:21;;;;;;;20.70;6.05;;;12.50;99.90;;;;;;4863455;29;20030;-79
2024/01/19 02:54:48;;;;;;;29.75;6.32;;;12.50;99.90;;;;;;4863089;29;20609;-78
2024/01/19 02:57:15;;;;;;;19.15;5.18;;;12.50;99.90;;;;;;4863275;29;20037;-78
2024/01/19 02:59:41;;;;;;;33.28;6.32;;;12.60;99.90;;;;;;4862118;29;20457;-78
2024/01/19 03:02:08;;;;;;;30.17;5.68;;;12.50;99.90;;;;;;4862133;29;20026;-78
2024/01/19 03:04:35;;;;;;;22.92;5.45;;;12.50;99.90;;;;;;4850968;29;20057;-79
2024/01/19 03:07:01;;;;;;;23.15;5.43;;;12.50;99.90;;;;;;4863181;29;20025;-79
2024/01/19 03:09:28;;;;;;;19.85;5.50;;;12.50;99.90;;;;;;4860950;29;20034;-80
2024/01/19 03:11:55;;;;;;;25.38;5.50;;;12.50;99.90;;;;;;4846720;29;20062;-80
2024/01/19 03:14:22;;;;;;;29.02;5.93;;;12.40;99.90;;;;;;4862370;29;20383;-77
2024/01/19 03:16:49;;;;;;;21.40;5.63;;;12.40;99.90;;;;;;4861337;29;20467;-79
2024/01/19 03:19:16;;;;;;;16.35;4.93;;;12.30;99.90;;;;;;4846505;29;20067;-78
2024/01/19 03:21:43;;;;;;;20.27;4.68;;;12.30;99.90;;;;;;4861704;29;20033;-77
2024/01/19 03:24:09;;;;;;;28.77;5.72;;;12.20;99.90;;;;;;4862486;29;20076;-78
2024/01/19 03:26:36;;;;;;;22.80;5.50;;;12.20;99.90;;;;;;4862532;29;20128;-77
2024/01/19 03:29:03;;;;;;;25.70;5.43;;;12.20;99.90;;;;;;4846754;29;20169;-78
2024/01/19 03:31:29;;;;;;;27.02;5.30;;;12.20;99.90;;;;;;4844662;29;20033;-78
2024/01/19 03:33:56;;;;;;;29.23;5.10;;;12.30;99.90;;;;;;4862255;29;20029;-77
2024/01/19 03:36:23;;;;;;;23.85;5.60;;;12.50;99.90;;;;;;4841308;29;20052;-77
2024/01/19 03:38:49;;;;;;;28.65;5.45;;;12.70;99.90;;;;;;4845600;29;20113;-77
2024/01/19 03:41:16;;;;;;;24.05;5.28;;;12.80;99.90;;;;;;4830753;29;20069;-78
2024/01/19 03:43:46;;;;;;;24.95;5.22;;;12.90;99.90;;;;;;4858967;29;20030;-79
2024/01/19 03:46:12;;;;;;;29.15;4.95;;;13.00;99.90;;;;;;4815607;29;20033;-78
2024/01/19 03:48:39;;;;;;;17.27;4.75;;;13.10;99.90;;;;;;4862448;29;20033;-77
2024/01/19 03:51:05;;;;;;;24.60;5.78;;;13.10;99.90;;;;;;4862291;29;20475;-79
2024/01/19 03:53:32;;;;;;;21.52;5.20;;;13.10;99.90;;;;;;4847889;29;20056;-77
2024/01/19 03:55:59;;;;;;;21.45;5.28;;;13.10;99.90;;;;;;4862825;29;20029;-78
2024/01/19 03:58:26;;;;;;;30.25;6.25;;;13.30;99.90;;;;;;4861127;29;20030;-78
2024/01/19 04:00:52;;;;;;;24.85;5.63;;;13.30;99.90;;;;;;4862233;29;20030;-77
2024/01/19 04:03:19;;;;;;;21.90;6.03;;;13.40;99.90;;;;;;4860949;29;20037;-78
2024/01/19 04:05:46;;;;;;;16.33;6.68;;;13.50;99.90;;;;;;4837510;29;20084;-79
2024/01/19 04:08:13;;;;;;;20.15;5.90;;;13.40;99.90;;;;;;4862078;29;20030;-78
2024/01/19 04:10:43;;;;;;;18.52;6.65;;;13.50;99.90;;;;;;4830632;29;20479;-77
2024/01/19 04:13:09;;;;;;;22.55;6.68;;;13.40;99.90;;;;;;4845410;29;20564;-77
2024/01/19 04:15:36;;;;;;;21.55;6.97;;;13.40;99.90;;;;;;4861641;29;20034;-79
2024/01/19 04:18:04;;;;;;;22.90;6.28;;;13.30;99.90;;;;;;4861952;29;20040;-79
2024/01/19 04:20:31;;;;;;;19.73;6.30;;;13.20;99.90;;;;;;4876147;29;20100;-78
2024/01/19 04:22:57;;;;;;;31.98;6.82;;;13.20;99.90;;;;;;4860756;29;20038;-78
2024/01/19 04:25:24;;;;;;;15.18;6.22;;;13.10;99.90;;;;;;4849673;29;20058;-78
2024/01/19 04:27:51;;;;;;;24.58;6.55;;;13.10;99.90;;;;;;4862115;29;20054;-78
2024/01/19 04:30:18;;;;;;;20.48;6.85;;;13.00;99.90;;;;;;4845283;29;20058;-81
2024/01/19 04:32:47;;;;;;;24.98;6.50;;;12.90;99.90;;;;;;4860688;29;20121;-78
2024/01/19 04:35:14;;;;;;;20.02;6.22;;;12.90;99.90;;;;;;4834792;29;20032;-78
2024/01/19 04:37:40;;;;;;;29.60;6.68;;;12.80;99.90;;;;;;4826920;29;20061;-80
2024/01/19 04:40:08;;;;;;;27.63;7.47;;;12.80;99.90;;;;;;4826752;29;20503;-78
2024/01/19 04:42:34;;;;;;;22.83;6.18;;;12.80;99.90;;;;;;4825327;29;20040;-78
2024/01/19 04:45:00;;;;;;;23.80;5.82;;;12.80;99.90;;;;;;4830125;29;20484;-79
2024/01/19 04:47:29;;;;;;;15.45;6.38;;;12.70;99.90;;;;;;4845230;29;20030;-80
2024/01/19 04:49:57;;;;;;;22.00;6.85;;;12.70;99.90;;;;;;4860636;29;20071;-80
2024/01/19 04:52:24;;;;;;;19.88;6.07;;;12.70;99.90;;;;;;4829701;29;20037;-80
2024/01/19 04:54:54;;;;;;;22.02;7.00;;;12.70;99.90;;;;;;4829789;29;20079;-78
2024/01/19 04:57:21;;;;;;;17.17;6.40;;;12.70;99.90;;;;;;4860181;29;20392;-80
2024/01/19 04:59:48;;;;;;;21.70;6.03;;;12.60;99.90;;;;;;4861332;29;20029;-80
2024/01/19 05:02:15;;;;;;;21.52;6.05;;;12.60;99.90;;;;;;4861072;29;20551;-79
2024/01/19 05:04:41;;;;;;;13.68;6.07;;;12.50;99.90;;;;;;4844293;29;20098;-80
2024/01/19 05:07:08;;;;;;;23.83;5.93;;;12.40;99.90;;;;;;4844714;29;20452;-77
2024/01/19 05:09:34;;;;;;;20.77;5.72;;;12.40;99.90;;;;;;4829762;29;20033;-77
2024/01/19 05:12:01;;;;;;;25.67;6.70;;;12.30;99.90;;;;;;4829473;29;20037;-78
2024/01/19 05:14:28;;;;;;;16.40;5.15;;;12.20;99.90;;;;;;4814332;29;20487;-78
2024/01/19 05:16:55;;;;;;;35.88;7.63;;;12.20;99.90;;;;;;4858756;29;20046;-79
2024/01/19 05:19:22;;;;;;;23.80;5.70;;;12.10;99.90;;;;;;4829741;29;20038;-82
2024/01/19 05:21:49;;;;;;;20.50;7.35;;;12.00;99.90;;;;;;4829596;29;20495;-79
2024/01/19 05:24:15;;;;;;;24.13;6.97;;;12.00;99.90;;;;;;4844386;29;20388;-78
2024/01/19 05:26:45;;;;;;;34.42;8.30;;;12.00;99.90;;;;;;4827198;29;20060;-79
2024/01/19 05:29:12;;;;;;;33.25;7.82;;;12.00;99.90;;;;;;4845063;29;20104;-78
2024/01/19 05:31:39;;;;;;;18.80;7.55;;;11.90;99.90;;;;;;4858067;29;20043;-81
2024/01/19 05:34:06;;;;;;;22.63;6.35;;;11.90;99.90;;;;;;4848188;29;20132;-80
2024/01/19 05:36:36;;;;;;;25.75;7.15;;;11.80;99.90;;;;;;4844100;29;20052;-79
2024/01/19 05:39:03;;;;;;;16.77;7.10;;;11.80;99.90;;;;;;4848157;29;20033;-78
2024/01/19 05:41:30;;;;;;;18.45;6.50;;;11.80;99.90;;;;;;4862022;29;20055;-79
2024/01/19 05:43:57;;;;;;;23.52;5.80;;;11.90;99.90;;;;;;4848125;29;20498;-78
2024/01/19 05:46:24;;;;;;;16.02;5.32;;;12.00;99.90;;;;;;4872856;29;20108;-79
2024/01/19 05:48:51;;;;;;;12.30;5.15;;;12.20;99.90;;;;;;4862778;29;20116;-78
2024/01/19 05:51:18;;;;;;;21.58;5.78;;;12.30;99.90;;;;;;4847706;29;20399;-76
2024/01/19 05:53:48;;;;;;;17.02;5.93;;;12.50;99.90;;;;;;4864325;29;20058;-78
2024/01/19 05:56:15;;;;;;;24.60;5.68;;;12.60;99.90;;;;;;4840960;29;20037;-76
2024/01/19 05:58:43;;;;;;;17.67;5.38;;;12.70;99.90;;;;;;4863236;29;20032;-78
2024/01/19 06:01:10;;;;;;;17.65;5.40;;;12.70;99.90;;;;;;4847457;29;20515;-77
2024/01/19 06:03:37;;;;;;;17.33;5.70;;;12.70;99.90;;;;;;4848027;29;20043;-77
2024/01/19 06:06:05;;;;;;;12.98;5.95;;;12.70;99.90;;;;;;4854805;29;20030;-79
2024/01/19 06:08:32;;;;;;;16.77;6.82;;;12.70;99.90;;;;;;4864249;29;20034;-78
2024/01/19 06:11:03;;;;;;;11.57;6.22;;;12.70;99.90;;;;;;4862985;29;20395;-79
2024/01/19 06:13:30;;;;;;;26.52;7.20;;;12.50;99.90;;;;;;4847405;29;20038;-78
2024/01/19 06:15:56;;;;;;;23.42;7.45;;;12.40;99.90;;;;;;4837961;29;20045;-76
2024/01/19 06:18:23;;;;;;;24.30;7.60;;;12.30;99.90;;;;;;4847660;29;20025;-78
2024/01/19 06:20:51;;;;;;;17.33;7.80;;;12.20;99.90;;;;;;4832349;29;20025;-78
2024/01/19 06:23:18;;;;;;;19.98;7.40;;;12.20;99.90;;;;;;4863745;29;20032;-79
2024/01/19 06:25:45;;;;;;;23.15;7.50;;;12.30;99.90;;;;;;4851482;29;20049;-80
2024/01/19 06:28:13;;;;;;;15.95;7.35;;;12.20;99.90;;;;;;4847952;29;20425;-79
2024/01/19 06:30:42;;;;;;;20.88;8.35;;;12.20;99.90;;;;;;4864830;29;20109;-78
2024/01/19 06:33:09;;;;;;;18.75;8.43;;;12.10;99.90;;;;;;4850353;29;20365;-76
2024/01/19 06:35:36;;;;;;;17.50;7.22;;;12.10;99.90;;;;;;4863461;29;20036;-77
2024/01/19 06:38:04;;;;;;;20.85;7.70;;;12.10;99.90;;;;;;4863734;29;20044;-78
2024/01/19 06:40:31;;;;;;;20.73;8.63;;;12.10;99.90;;;;;;4862547;29;20026;-78
2024/01/19 06:42:58;;;;;;;28.75;9.45;;;12.20;99.90;;;;;;4851736;29;20036;-77
2024/01/19 06:45:24;;;;;;;16.38;7.40;;;12.30;99.90;;;;;;4848320;29;20391;-78
2024/01/19 06:47:52;;;;;;;12.65;6.22;;;12.40;99.90;;;;;;4863668;29;20036;-78
2024/01/19 06:50:19;;;;;;;20.05;8.25;;;12.40;99.90;;;;;;4863774;29;20048;-79
2024/01/19 06:52:46;;;;;;;32.55;8.85;;;12.40;99.90;;;;;;4863381;29;20379;-79
2024/01/19 06:55:12;;;;;;;20.80;9.23;;;12.60;99.90;;;;;;4846771;29;20776;-78
2024/01/19 06:57:39;;;;;;;24.55;10.07;;;12.80;99.90;;;;;;4863180;29;20117;-78
2024/01/19 07:00:07;;;;;;;17.17;10.27;;;12.90;99.90;;;;;;4863302;29;20026;-78
2024/01/19 07:02:33;;;;;;;18.40;11.65;;;13.00;99.90;;;;;;4863496;29;20059;-79
2024/01/19 07:05:00;;;;;;;23.95;13.20;;;13.40;99.90;;;;;;4862976;29;20045;-77
2024/01/19 07:07:27;;;;;;;21.15;13.90;;;13.60;99.90;;;;;;4863122;29;20112;-79
2024/01/19 07:09:54;;;;;;;19.70;15.07;;;13.90;99.90;;;;;;4846865;29;20032;-78
2024/01/19 07:12:21;;;;;;;23.15;16.00;;;14.20;99.90;;;;;;4861969;29;20029;-77
2024/01/19 07:14:50;;;;;;;27.25;15.65;;;14.50;99.90;;;;;;4851531;29;20034;-78
2024/01/19 07:17:17;;;;;;;24.88;17.80;;;14.80;99.90;;;;;;4862805;29;20092;-77
2024/01/19 07:19:44;;;;;;;22.52;19.83;;;15.00;99.90;;;;;;4863049;29;20025;-77
2024/01/19 07:22:11;;;;;;;24.90;21.08;;;15.20;99.90;;;;;;4846197;29;20098;-78
2024/01/19 07:24:40;;;;;;;27.08;22.50;;;15.60;99.90;;;;;;4862503;29;20056;-77
2024/01/19 07:27:07;;;;;;;31.52;20.90;;;15.90;99.90;;;;;;4860014;29;20080;-78
2024/01/19 07:29:34;;;;;;;26.45;19.10;;;16.00;99.90;;;;;;4846208;29;20491;-78
2024/01/19 07:32:03;;;;;;;24.67;18.52;;;16.10;99.90;;;;;;4862829;29;20099;-80
2024/01/19 07:34:30;;;;;;;21.65;19.42;;;16.10;99.90;;;;;;4856355;29;20036;-79
2024/01/19 07:36:58;;;;;;;30.15;20.05;;;16.30;99.90;;;;;;4845908;29;20064;-78
2024/01/19 07:39:29;;;;;;;26.30;20.88;;;16.40;99.90;;;;;;4860616;29;20452;-78
2024/01/19 07:41:56;;;;;;;26.92;21.92;;;16.50;99.90;;;;;;4862594;29;20041;-77
2024/01/19 07:44:24;;;;;;;26.45;20.73;;;16.60;99.90;;;;;;4845746;29;20028;-78
2024/01/19 07:46:51;;;;;;;24.77;21.90;;;16.80;99.90;;;;;;4844205;29;20120;-79
2024/01/19 07:49:21;;;;;;;23.50;21.10;;;17.00;99.90;;;;;;4862434;29;20025;-78
2024/01/19 07:51:49;;;;;;;26.60;21.48;;;17.10;99.90;;;;;;4861331;29;20037;-78
2024/01/19 07:54:17;;;;;;;23.95;21.25;;;17.30;99.90;;;;;;4858077;29;20022;-78
2024/01/19 07:56:44;;;;;;;26.05;20.73;;;17.50;99.90;;;;;;4841270;29;20441;-79
2024/01/19 07:59:11;;;;;;;24.75;20.88;;;17.70;99.90;;;;;;4846309;29;20135;-77
2024/01/19 08:01:39;;;;;;;25.08;21.05;;;17.80;99.90;;;;;;4845747;29;20041;-76
2024/01/19 08:04:06;;;;;;;24.23;21.58;;;18.00;99.90;;;;;;4860947;29;20024;-78
2024/01/19 08:06:33;;;;;;;23.33;20.88;;;18.10;99.90;;;;;;4869740;29;20500;-78
2024/01/19 08:08:59;;;;;;;24.58;22.10;;;18.20;99.90;;;;;;4861796;29;20025;-77
2024/01/19 08:11:26;;;;;;;24.50;22.15;;;18.20;99.90;;;;;;4862899;29;20077;-78
2024/01/19 08:13:53;;;;;;;24.73;22.42;;;18.20;99.90;;;;;;4860876;29;20032;-77
2024/01/19 08:16:20;;;;;;;24.42;22.15;;;18.20;99.90;;;;;;4852068;29;20527;-79
2024/01/19 08:18:47;;;;;;;23.63;21.23;;;18.10;99.90;;;;;;4862036;29;20510;-76
2024/01/19 08:21:14;;;;;;;23.55;21.27;;;18.00;99.90;;;;;;4846476;29;20159;-77
2024/01/19 08:23:41;;;;;;;23.88;21.60;;;17.90;99.90;;;;;;4860797;29;20029;-77
2024/01/19 08:26:08;;;;;;;26.75;22.30;;;18.00;99.90;;;;;;4850607;29;20491;-78
2024/01/19 08:28:35;;;;;;;24.10;21.90;;;18.10;99.90;;;;;;4861856;29;20057;-78
2024/01/19 08:31:02;;;;;;;25.27;22.70;;;18.00;99.90;;;;;;4861021;29;20429;-79
2024/01/19 08:33:29;;;;;;;24.90;22.70;;;18.20;99.90;;;;;;4861827;29;20088;-79
2024/01/19 08:35:56;;;;;;;25.80;23.00;;;18.20;99.90;;;;;;4861472;29;20211;-79
2024/01/19 08:38:23;;;;;;;27.63;24.50;;;18.20;99.90;;;;;;4831016;29;20044;-80
2024/01/19 08:40:50;;;;;;;26.13;23.85;;;18.30;99.90;;;;;;4831608;29;20104;-79
2024/01/19 08:43:16;;;;;;;26.85;23.52;;;18.30;99.90;;;;;;4861789;29;20458;-79
2024/01/19 08:45:43;;;;;;;25.73;23.70;;;18.40;99.90;;;;;;4861642;29;20025;-78
2024/01/19 08:48:09;;;;;;;26.35;24.02;;;18.60;99.90;;;;;;4829749;29;20101;-79
2024/01/19 08:50:35;;;;;;;25.75;23.65;;;18.70;99.90;;;;;;4845233;29;20554;-78
2024/01/19 08:53:03;;;;;;;27.60;25.20;;;18.80;99.90;;;;;;4830224;29;20036;-80
2024/01/19 08:55:30;;;;;;;27.25;25.25;;;19.00;99.90;;;;;;4844824;29;20038;-80
2024/01/19 08:57:59;;;;;;;29.55;26.58;;;19.00;99.90;;;;;;4844913;29;20088;-78
2024/01/19 09:00:26;;;;;;;28.70;26.55;;;19.00;99.90;;;;;;4860227;29;20392;-78
2024/01/19 09:02:56;;;;;;;28.27;25.45;;;19.00;99.90;;;;;;4861635;29;20038;-77
2024/01/19 09:05:26;;;;;;;28.35;25.80;;;19.00;99.90;;;;;;4870216;29;20036;-77
2024/01/19 09:07:54;;;;;;;28.63;25.88;;;19.10;99.90;;;;;;4860228;29;20037;-77
2024/01/19 09:10:21;;;;;;;28.38;26.02;;;19.10;99.90;;;;;;4845134;29;20049;-77
2024/01/19 09:12:49;;;;;;;28.70;26.10;;;19.20;99.90;;;;;;4861255;29;20025;-79
2024/01/19 09:15:16;;;;;;;29.55;26.60;;;19.30;99.90;;;;;;4860411;29;20022;-77
2024/01/19 09:17:43;;;;;;;27.70;25.50;;;19.20;99.90;;;;;;4844552;29;20061;-78
2024/01/19 09:20:11;;;;;;;27.67;25.08;;;19.20;99.90;;;;;;4829591;29;20518;-78
2024/01/19 09:22:40;;;;;;;29.80;26.80;;;19.30;99.90;;;;;;4861505;29;20030;-77
2024/01/19 09:25:08;;;;;;;29.88;26.45;;;19.30;99.90;;;;;;4844370;29;20106;-79
2024/01/19 09:27:35;;;;;;;29.00;26.48;;;19.50;99.90;;;;;;4845558;29;20540;-76
2024/01/19 09:30:02;;;;;;;28.88;26.58;;;19.60;99.90;;;;;;4859803;29;20136;-80
2024/01/19 09:32:29;;;;;;;29.38;26.70;;;19.50;99.90;;;;;;4844387;29;20026;-78
2024/01/19 09:34:55;;;;;;;29.38;26.67;;;19.50;99.90;;;;;;4861082;29;20502;-79
2024/01/19 09:37:22;;;;;;;29.67;27.33;;;19.70;99.90;;;;;;4827440;29;20045;-78
2024/01/19 09:39:49;;;;;;;29.00;26.83;;;19.80;99.90;;;;;;4860841;29;20487;-78
2024/01/19 09:42:27;;;;;;;29.25;26.88;;;20.00;99.90;;;;;;4860702;29;20034;-77
2024/01/19 09:45:04;;;;;;;29.48;27.10;;;20.00;99.90;;;;;;4859911;29;20033;-79
2024/01/19 09:47:47;;;;;;;30.50;27.50;;;20.10;99.90;;;;;;4845432;29;20026;-78
2024/01/19 09:50:19;;;;;;;29.30;27.10;;;20.00;99.90;;;;;;4829988;29;20492;-81
2024/01/19 09:53:04;;;;;;;30.40;27.00;;;20.00;99.90;;;;;;4815125;29;20034;-82
2024/01/19 09:55:31;;;;;;;29.40;26.90;;;20.00;99.90;;;;;;4845214;29;20038;-84
2024/01/19 09:57:58;;;;;;;30.30;27.83;;;19.90;99.90;;;;;;4858420;29;20026;-80
2024/01/19 10:00:25;;;;;;;29.92;27.42;;;19.80;99.90;;;;;;4845322;29;20187;-80
2024/01/19 10:02:54;;;;;;;29.13;26.65;;;19.80;99.90;;;;;;4830389;29;20058;-82
2024/01/19 10:05:22;;;;;;;29.25;26.77;;;19.80;99.90;;;;;;4860847;29;20105;-81
2024/01/19 10:07:58;;;;;;;29.38;26.80;;;19.80;99.90;;;;;;4861283;29;20034;-82
2024/01/19 10:10:25;;;;;;;30.40;27.35;;;19.90;99.90;;;;;;4853456;29;20060;-84
2024/01/19 10:12:52;;;;;;;29.98;27.35;;;20.10;99.90;;;;;;4844730;29;20057;-79
2024/01/19 10:15:19;;;;;;;29.13;26.85;;;20.10;99.90;;;;;;4861242;29;20037;-81
2024/01/19 10:17:46;;;;;;;29.05;26.70;;;20.10;99.90;;;;;;4862404;29;20033;-81
2024/01/19 10:20:16;;;;;;;30.08;27.33;;;20.10;99.90;;;;;;4863834;29;20365;-79
2024/01/19 10:22:44;;;;;;;30.23;27.70;;;20.00;99.90;;;;;;4864501;29;20041;-80
2024/01/19 10:25:12;;;;;;;29.88;27.35;;;19.90;99.90;;;;;;4848675;29;20050;-79
2024/01/19 10:27:52;;;;;;;29.13;26.77;;;20.00;99.90;;;;;;4845131;29;20029;-79
2024/01/19 10:30:30;;;;;;;30.00;27.25;;;20.00;99.90;;;;;;4848893;29;20029;-79
2024/01/19 10:33:05;;;;;;;30.08;27.23;;;19.90;99.90;;;;;;4863838;29;20100;-80
2024/01/19 10:35:32;;;;;;;30.63;27.83;;;19.90;99.90;;;;;;4864539;29;20120;-79
2024/01/19 10:38:06;;;;;;;29.30;26.65;;;20.00;99.90;;;;;;4849929;29;20056;-79
2024/01/19 10:40:37;;;;;;;30.13;27.38;;;19.90;99.90;;;;;;4847726;29;20030;-81
2024/01/19 10:43:04;;;;;;;28.80;26.73;;;19.90;99.90;;;;;;4862641;29;20033;-84
2024/01/19 10:45:35;;;;;;;29.95;27.05;;;20.00;99.90;;;;;;4864211;29;20025;-79
2024/01/19 10:48:03;;;;;;;30.40;27.75;;;20.10;99.90;;;;;;4862992;29;20040;-81
2024/01/19 10:50:31;;;;;;;30.58;28.02;;;20.10;99.90;;;;;;4878860;29;20057;-83
2024/01/19 10:53:00;;;;;;;32.90;28.52;;;20.10;99.90;;;;;;4858946;29;20041;-81
2024/01/19 10:55:31;;;;;;;31.67;29.02;;;20.10;99.90;;;;;;4848087;29;20034;-81
2024/01/19 10:58:03;;;;;;;33.65;30.10;;;20.10;99.90;;;;;;4862780;29;20044;-81
2024/01/19 11:00:30;;;;;;;33.40;29.98;;;20.10;99.90;;;;;;4864103;29;20488;-83
2024/01/19 11:02:59;;;;;;;32.47;29.48;;;20.10;99.90;;;;;;4862113;29;20036;-84
2024/01/19 11:05:26;;;;;;;32.17;29.23;;;20.20;99.90;;;;;;4863890;29;20021;-80
2024/01/19 11:08:02;;;;;;;33.13;29.67;;;20.20;99.90;;;;;;4862732;29;20037;-79
2024/01/19 11:10:31;;;;;;;33.10;29.60;;;20.20;99.90;;;;;;4861911;29;20498;-81
2024/01/19 11:12:59;;;;;;;30.60;28.00;;;20.20;99.90;;;;;;4847193;29;20030;-81
2024/01/19 11:15:30;;;;;;;29.88;26.88;;;20.20;99.90;;;;;;4862504;29;20026;-79
2024/01/19 11:18:02;;;;;;;29.83;27.20;;;20.10;99.90;;;;;;4863936;29;20073;-78
2024/01/19 11:20:31;;;;;;;29.17;26.83;;;19.80;99.90;;;;;;4863186;29;20097;-79
2024/01/19 11:22:59;;;;;;;29.20;26.92;;;19.70;99.90;;;;;;4847153;29;20037;-82
2024/01/19 11:25:54;;;;;;;30.63;27.90;;;19.70;99.90;;;;;;4846738;29;20118;-85
2024/01/19 11:28:56;;;;;;;29.52;27.48;;;19.70;99.90;;;;;;4831545;29;20522;-81
2024/01/19 11:31:30;;;;;;;30.50;27.75;;;19.60;99.90;;;;;;4831364;29;20045;-80
2024/01/19 11:33:57;;;;;;;31.08;28.55;;;19.50;99.90;;;;;;4847057;29;20066;-84
2024/01/19 11:36:38;;;;;;;30.10;27.70;;;19.60;99.90;;;;;;4866792;29;20040;-81
2024/01/19 11:39:09;;;;;;;30.73;28.00;;;19.70;99.90;;;;;;4863742;29;20392;-80
2024/01/19 11:41:36;;;;;;;30.20;27.70;;;19.70;99.90;;;;;;4870354;29;20040;-80
2024/01/19 11:44:04;;;;;;;29.92;27.70;;;19.70;99.90;;;;;;4863307;29;20022;-81
2024/01/19 11:46:52;;;;;;;29.80;27.30;;;19.80;99.90;;;;;;4846231;29;20037;-80
2024/01/19 11:52:23;;;;;;;30.17;27.70;;;19.90;99.90;;;;;;4862987;29;20040;-80
2024/01/19 11:54:50;;;;;;;29.00;26.33;;;19.90;99.90;;;;;;4861451;29;20070;-81
2024/01/19 11:57:25;;;;;;;29.88;27.08;;;19.90;99.90;;;;;;4857551;29;20041;-79
2024/01/19 11:59:55;;;;;;;30.13;27.55;;;20.00;99.90;;;;;;4862461;29;20116;-79
2024/01/19 12:02:27;;;;;;;31.10;27.80;;;19.90;99.90;;;;;;4847004;29;20116;-79
2024/01/19 12:04:56;;;;;;;30.92;27.92;;;19.90;99.90;;;;;;4862783;29;20025;-80
2024/01/19 12:07:23;;;;;;;30.48;27.25;;;19.90;99.90;;;;;;4861679;29;20030;-83
2024/01/19 12:10:15;;;;;;;30.05;27.35;;;20.00;99.90;;;;;;4846184;29;20044;-80
2024/01/19 12:12:42;;;;;;;28.77;26.52;;;20.10;99.90;;;;;;4863353;29;20032;-81
2024/01/19 12:15:10;;;;;;;30.00;27.25;;;20.10;99.90;;;;;;4848045;29;20029;-80
2024/01/19 12:17:42;;;;;;;31.38;28.67;;;20.10;99.90;;;;;;4861921;29;20403;-80
2024/01/19 12:20:19;;;;;;;30.80;28.20;;;19.90;99.90;;;;;;4861624;29;20132;-81
2024/01/19 12:22:51;;;;;;;30.70;27.08;;;19.80;99.90;;;;;;4860996;29;20120;-80
2024/01/19 12:25:20;;;;;;;29.30;26.90;;;19.70;99.90;;;;;;4846852;29;20185;-83
2024/01/19 12:27:49;;;;;;;31.05;28.15;;;19.60;99.90;;;;;;4860292;29;20419;-82
2024/01/19 12:30:19;;;;;;;30.65;27.75;;;19.50;99.90;;;;;;4860961;29;20029;-80
2024/01/19 12:32:48;;;;;;;29.48;27.08;;;19.50;99.90;;;;;;4870315;29;20040;-79
2024/01/19 12:35:19;;;;;;;28.65;26.50;;;19.50;99.90;;;;;;4862557;29;20479;-80
2024/01/19 12:37:46;;;;;;;28.48;26.27;;;19.40;99.90;;;;;;4860210;29;20066;-80
2024/01/19 12:40:15;;;;;;;29.63;26.80;;;19.30;99.90;;;;;;4860947;29;20614;-79